CheckWX is a tool to help pilots better visualize weather data.  It is not intended as a substitute for an official pre-flight weather briefing.

14:43:50 UTC

CYBB METAR
Pelly Bay Airport
Pelly Bay, Canada
Current

2 hours ago

CYBB 251300Z 24009KT 10SM -SN FEW010 BKN080 M24/M27 A2981 RMK ST1AS4 SLP098
Observed
Apr-25 @ 13:00 UTC
Wind
  • 240° at 9 KTS
Visibility
10 SM
Flight Rules
VFR
Conditions
Light Snow
Cloud Levels
  • Few at 1,000' AGL
  • Broken at 8,000' AGL
Temperature
-24°C / -11°F
Dewpoint
-27°C / -17°F
Humidity
76%
Altimeter
29.81" Hg
Pressure
1009.52 hPa
Previous

3 hours ago

CYBB 251200Z 25009KT 5SM -SN FEW010 BKN080 M24/M27 A2982 RMK ST2AS5 0.4/16/MUCH LOOSE SLP101
Observed
Apr-25 @ 12:00 UTC
Wind
  • 250° at 9 KTS
Visibility
5 SM
Flight Rules
MVFR
Conditions
Light Snow
Cloud Levels
  • Few at 1,000' AGL
  • Broken at 8,000' AGL
Temperature
-24°C / -11°F
Dewpoint
-27°C / -17°F
Humidity
76%
Altimeter
29.82" Hg
Pressure
1009.82 hPa
Previous

16 hours ago

CYBB 242300Z 02005KT 15SM FEW100 M18/M22 A2991 RMK AC1 AC TR 0.0/15/HARD PACK/LAST STFD OBS/NXT/251200Z SLP133
Observed
Apr-24 @ 23:00 UTC
Wind
  • 020° at 5 KTS
Visibility
15 SM
Flight Rules
VFR
Cloud Levels
  • Few at 10,000' AGL
Temperature
-18°C / -0°F
Dewpoint
-22°C / -8°F
Humidity
71%
Altimeter
29.91" Hg
Pressure
1012.92 hPa